Time;durP1;ratioP1;P1;durP2;ratioP2;P2;SDS_P1;SDS_P2;PMS_P1;PMS_P2;Temp;Humidity;BMP_temperature;BMP_pressure;BME280_temperature;BME280_humidity;BME280_pressure;Samples;Min_cycle;Max_cycle;Signal;HPM_P1;HPM_P2
2022/11/25 00:01:04;;;;;;;;;;;;;;;;;;5015699;28;2097;-58
2022/11/25 00:03:29;;;;;;;;;;;;;;;;;;5030925;28;4948;-57
2022/11/25 00:05:54;;;;;;;;;;;;;;;;;;5030554;28;4526;-58
2022/11/25 00:08:19;;;;;;;;;;;;;;;;;;5022092;28;5124;-58
2022/11/25 00:10:45;;;;;;;;;;;;;;;;;;5030519;28;4455;-59
2022/11/25 00:13:10;;;;;;;;;;;;;;;;;;5045701;28;4416;-59
2022/11/25 00:15:35;;;;;;;;;;;;;;;;;;5029258;28;2385;-60
2022/11/25 00:18:01;;;;;;;;;;;;;;;;;;5012667;28;5140;-58
2022/11/25 00:20:26;;;;;;;;;;;;;;;;;;5026612;28;4555;-58
2022/11/25 00:22:51;;;;;;;;;;;;;;;;;;5030331;28;5122;-58
2022/11/25 00:25:16;;;;;;;;;;;;;;;;;;5024778;28;5118;-60
2022/11/25 00:27:42;;;;;;;;;;;;;;;;;;5010446;28;1051;-58
2022/11/25 00:30:07;;;;;;;;;;;;;;;;;;5010801;28;5016;-58
2022/11/25 00:32:32;;;;;;;;;;;;;;;;;;5029779;28;5045;-59
2022/11/25 00:34:58;;;;;;;;;;;;;;;;;;5029827;28;5139;-58
2022/11/25 00:37:23;;;;;;;;;;;;;;;;;;5029992;28;5603;-58
2022/11/25 00:39:48;;;;;;;;;;;;;;;;;;5030381;28;1050;-58
2022/11/25 00:44:57;;;;;;;;;;;;;;;;;;5025918;28;4845;-57
2022/11/25 00:47:22;;;;;;;;;;;;;;;;;;5027657;28;5077;-58
2022/11/25 00:49:49;;;;;;;;;;;;;;;;;;5029742;28;5043;-58
2022/11/25 00:52:24;;;;;;;;;;;;;;;;;;5029651;28;5695;-59
2022/11/25 00:54:49;;;;;;;;;;;;;;;;;;5028347;28;1702;-59
2022/11/25 00:57:15;;;;;;;;;;;;;;;;;;5009548;28;4645;-59
2022/11/25 00:59:40;;;;;;;;;;;;;;;;;;5009500;28;5093;-59
2022/11/25 01:02:06;;;;;;;;;;;;;;;;;;5012930;28;5014;-59
2022/11/25 01:04:31;;;;;;;;;;;;;;;;;;5029255;28;5270;-58
2022/11/25 01:06:58;;;;;;;;;;;;;;;;;;5029717;28;1097;-60
2022/11/25 01:09:24;;;;;;;;;;;;;;;;;;5027738;28;4651;-59
2022/11/25 01:11:50;;;;;;;;;;;;;;;;;;5028736;28;4844;-59
2022/11/25 01:14:15;;;;;;;;;;;;;;;;;;5027580;28;4908;-58
2022/11/25 01:16:40;;;;;;;;;;;;;;;;;;5021911;28;5334;-57
2022/11/25 01:19:06;;;;;;;;;;;;;;;;;;5018288;28;2363;-59
2022/11/25 01:21:31;;;;;;;;;;;;;;;;;;5013252;28;5103;-58
2022/11/25 01:24:00;;;;;;;;;;;;;;;;;;5008773;28;4947;-58
2022/11/25 01:26:26;;;;;;;;;;;;;;;;;;5009056;28;4554;-58
2022/11/25 01:29:00;;;;;;;;;;;;;;;;;;5016108;28;5064;-58
2022/11/25 01:31:26;;;;;;;;;;;;;;;;;;5031010;28;5209;-58
2022/11/25 01:33:53;;;;;;;;;;;;;;;;;;5009854;28;1419;-58
2022/11/25 01:36:18;;;;;;;;;;;;;;;;;;5042138;28;5177;-57
2022/11/25 01:38:44;;;;;;;;;;;;;;;;;;5022273;28;5121;-63
2022/11/25 01:41:10;;;;;;;;;;;;;;;;;;5018512;28;5187;-55
2022/11/25 01:43:36;;;;;;;;;;;;;;;;;;5026800;28;4984;-58
2022/11/25 01:46:04;;;;;;;;;;;;;;;;;;5019041;28;2361;-58
2022/11/25 01:48:41;;;;;;;;;;;;;;;;;;5028385;28;4447;-59
2022/11/25 01:51:11;;;;;;;;;;;;;;;;;;5027244;28;4822;-59
2022/11/25 01:53:36;;;;;;;;;;;;;;;;;;5026988;28;5001;-59
2022/11/25 01:56:01;;;;;;;;;;;;;;;;;;5029287;28;4694;-58
2022/11/25 01:58:28;;;;;;;;;;;;;;;;;;5043594;28;5455;-58
2022/11/25 02:00:53;;;;;;;;;;;;;;;;;;5027887;28;1158;-58
2022/11/25 02:03:28;;;;;;;;;;;;;;;;;;5028452;28;5007;-58
2022/11/25 02:05:55;;;;;;;;;;;;;;;;;;5025602;28;5495;-58
2022/11/25 02:08:21;;;;;;;;;;;;;;;;;;5019637;28;5217;-58
2022/11/25 02:10:47;;;;;;;;;;;;;;;;;;5028211;28;4420;-58
2022/11/25 02:13:12;;;;;;;;;;;;;;;;;;5028704;28;4482;-58
2022/11/25 02:15:37;;;;;;;;;;;;;;;;;;5029021;28;970;-59
2022/11/25 02:18:02;;;;;;;;;;;;;;;;;;5028035;28;5044;-58
2022/11/25 02:20:28;;;;;;;;;;;;;;;;;;5026589;28;5035;-58
2022/11/25 02:22:53;;;;;;;;;;;;;;;;;;5026703;28;4997;-58
2022/11/25 02:25:22;;;;;;;;;;;;;;;;;;5017148;28;5497;-58
2022/11/25 02:27:48;;;;;;;;;;;;;;;;;;5024728;28;1139;-58
2022/11/25 02:30:14;;;;;;;;;;;;;;;;;;5033990;28;4600;-58
2022/11/25 02:32:46;;;;;;;;;;;;;;;;;;5027841;28;5056;-59
2022/11/25 02:35:26;;;;;;;;;;;;;;;;;;5026887;28;5043;-59
2022/11/25 02:37:52;;;;;;;;;;;;;;;;;;5024779;28;5191;-59
2022/11/25 02:40:17;;;;;;;;;;;;;;;;;;5042013;28;4923;-59
2022/11/25 02:42:43;;;;;;;;;;;;;;;;;;5017553;28;2152;-59
2022/11/25 02:45:09;;;;;;;;;;;;;;;;;;5039857;28;4549;-59
2022/11/25 02:47:34;;;;;;;;;;;;;;;;;;5017838;28;4639;-59
2022/11/25 02:49:59;;;;;;;;;;;;;;;;;;5033789;28;4450;-59
2022/11/25 02:52:24;;;;;;;;;;;;;;;;;;5030162;28;5246;-58
2022/11/25 02:54:50;;;;;;;;;;;;;;;;;;5031347;28;1746;-59
2022/11/25 02:57:15;;;;;;;;;;;;;;;;;;5010445;28;5094;-59
2022/11/25 02:59:40;;;;;;;;;;;;;;;;;;5022136;28;4460;-59
2022/11/25 03:02:05;;;;;;;;;;;;;;;;;;5031115;28;5136;-58
2022/11/25 03:04:31;;;;;;;;;;;;;;;;;;5031841;28;4979;-57
2022/11/25 03:06:56;;;;;;;;;;;;;;;;;;5031847;28;1158;-58
2022/11/25 03:09:21;;;;;;;;;;;;;;;;;;5031434;28;4408;-58
2022/11/25 03:14:30;;;;;;;;;;;;;;;;;;5029936;28;5172;-57
2022/11/25 03:16:56;;;;;;;;;;;;;;;;;;5027813;28;5224;-58
2022/11/25 03:19:21;;;;;;;;;;;;;;;;;;5031418;28;4436;-59
2022/11/25 03:21:46;;;;;;;;;;;;;;;;;;5031897;28;1435;-59
2022/11/25 03:24:11;;;;;;;;;;;;;;;;;;5029339;28;5032;-58
2022/11/25 03:26:37;;;;;;;;;;;;;;;;;;5015411;28;5063;-58
2022/11/25 03:29:02;;;;;;;;;;;;;;;;;;5019367;28;4708;-58
2022/11/25 03:31:27;;;;;;;;;;;;;;;;;;5029909;28;4884;-58
2022/11/25 03:33:54;;;;;;;;;;;;;;;;;;5021948;28;2125;-58
2022/11/25 03:36:19;;;;;;;;;;;;;;;;;;5028303;28;4881;-58
2022/11/25 03:38:44;;;;;;;;;;;;;;;;;;5011186;28;4546;-58
2022/11/25 03:41:10;;;;;;;;;;;;;;;;;;5013549;28;5138;-58
2022/11/25 03:43:35;;;;;;;;;;;;;;;;;;5024968;28;4927;-58
2022/11/25 03:46:00;;;;;;;;;;;;;;;;;;5021154;28;2113;-58
2022/11/25 03:48:26;;;;;;;;;;;;;;;;;;5022545;28;5038;-58
2022/11/25 03:50:51;;;;;;;;;;;;;;;;;;5020347;28;5061;-58
2022/11/25 03:53:16;;;;;;;;;;;;;;;;;;5021466;28;5065;-57
2022/11/25 03:55:42;;;;;;;;;;;;;;;;;;5022513;28;4633;-57
2022/11/25 03:58:07;;;;;;;;;;;;;;;;;;5015571;28;2251;-57
2022/11/25 04:00:32;;;;;;;;;;;;;;;;;;5018749;28;4999;-57
2022/11/25 04:02:58;;;;;;;;;;;;;;;;;;5010911;28;5083;-58
2022/11/25 04:05:23;;;;;;;;;;;;;;;;;;5010574;28;4570;-58
2022/11/25 04:07:48;;;;;;;;;;;;;;;;;;5019372;28;5093;-59
2022/11/25 04:10:13;;;;;;;;;;;;;;;;;;5010464;28;5024;-58
2022/11/25 04:12:48;;;;;;;;;;;;;;;;;;5022128;28;2288;-57
2022/11/25 04:15:14;;;;;;;;;;;;;;;;;;5021543;28;4605;-58
2022/11/25 04:17:39;;;;;;;;;;;;;;;;;;5033735;28;5024;-56
2022/11/25 04:20:05;;;;;;;;;;;;;;;;;;5030419;28;4571;-58
2022/11/25 04:22:30;;;;;;;;;;;;;;;;;;5030307;28;5007;-58
2022/11/25 04:24:55;;;;;;;;;;;;;;;;;;5044142;28;1989;-58
2022/11/25 04:27:20;;;;;;;;;;;;;;;;;;5012852;28;5095;-58
2022/11/25 04:29:46;;;;;;;;;;;;;;;;;;5029611;28;5023;-58
2022/11/25 04:32:11;;;;;;;;;;;;;;;;;;5028436;28;5127;-58
2022/11/25 04:34:36;;;;;;;;;;;;;;;;;;5030428;28;4978;-56
2022/11/25 04:37:01;;;;;;;;;;;;;;;;;;5029317;28;1165;-57
2022/11/25 04:39:27;;;;;;;;;;;;;;;;;;5030438;28;4796;-58
2022/11/25 04:42:30;;;;;;;;;;;;;;;;;;5027549;28;5046;-58
2022/11/25 04:44:37;;;;;;;;;;;;;;;;;;5029567;28;4879;-58
2022/11/25 04:47:02;;;;;;;;;;;;;;;;;;5024966;28;4924;-58
2022/11/25 04:49:28;;;;;;;;;;;;;;;;;;5029544;28;5409;-59
2022/11/25 04:51:53;;;;;;;;;;;;;;;;;;5030305;28;1112;-59
2022/11/25 04:54:18;;;;;;;;;;;;;;;;;;5029589;28;5162;-59
2022/11/25 04:56:43;;;;;;;;;;;;;;;;;;5013366;28;4472;-59
2022/11/25 05:01:52;;;;;;;;;;;;;;;;;;5021209;28;5158;-59
2022/11/25 05:04:18;;;;;;;;;;;;;;;;;;5029309;28;5277;-59
2022/11/25 05:06:43;;;;;;;;;;;;;;;;;;5029506;28;1101;-59
2022/11/25 05:09:10;;;;;;;;;;;;;;;;;;5029224;28;4532;-58
2022/11/25 05:11:35;;;;;;;;;;;;;;;;;;5029477;28;4932;-59
2022/11/25 05:14:00;;;;;;;;;;;;;;;;;;5027215;28;5078;-59
2022/11/25 05:16:25;;;;;;;;;;;;;;;;;;5010417;28;5028;-59
2022/11/25 05:18:51;;;;;;;;;;;;;;;;;;5021059;28;2381;-59
2022/11/25 05:21:16;;;;;;;;;;;;;;;;;;5010057;28;4683;-58
2022/11/25 05:23:41;;;;;;;;;;;;;;;;;;5012535;28;4984;-57
2022/11/25 05:26:06;;;;;;;;;;;;;;;;;;5012148;28;5159;-58
2022/11/25 05:28:32;;;;;;;;;;;;;;;;;;5011948;28;4670;-58
2022/11/25 05:30:57;;;;;;;;;;;;;;;;;;5016157;28;2137;-60
2022/11/25 05:33:22;;;;;;;;;;;;;;;;;;5013350;28;4922;-58
2022/11/25 05:35:55;;;;;;;;;;;;;;;;;;5025698;28;5011;-57
2022/11/25 05:38:20;;;;;;;;;;;;;;;;;;5027021;28;4937;-58
2022/11/25 05:40:45;;;;;;;;;;;;;;;;;;5022526;28;4995;-58
2022/11/25 05:43:11;;;;;;;;;;;;;;;;;;5006899;28;5166;-59
2022/11/25 05:45:37;;;;;;;;;;;;;;;;;;5027647;28;1971;-59
2022/11/25 05:48:02;;;;;;;;;;;;;;;;;;5025293;28;4703;-57
2022/11/25 05:50:27;;;;;;;;;;;;;;;;;;5021677;28;4909;-58
2022/11/25 05:52:53;;;;;;;;;;;;;;;;;;5040116;28;5745;-57
2022/11/25 05:55:18;;;;;;;;;;;;;;;;;;5024150;28;5050;-58
2022/11/25 05:57:44;;;;;;;;;;;;;;;;;;5008762;28;1025;-58
2022/11/25 06:00:09;;;;;;;;;;;;;;;;;;5013835;28;5059;-57
2022/11/25 06:02:34;;;;;;;;;;;;;;;;;;5001381;28;5000;-60
2022/11/25 06:05:00;;;;;;;;;;;;;;;;;;5008356;28;5250;-58
2022/11/25 06:07:25;;;;;;;;;;;;;;;;;;5044622;28;4467;-57
2022/11/25 06:09:50;;;;;;;;;;;;;;;;;;5034809;28;2091;-57
2022/11/25 06:12:15;;;;;;;;;;;;;;;;;;5009472;28;4645;-57
2022/11/25 06:14:41;;;;;;;;;;;;;;;;;;5018822;28;5092;-58
2022/11/25 06:17:06;;;;;;;;;;;;;;;;;;5028711;28;4741;-57
2022/11/25 06:19:31;;;;;;;;;;;;;;;;;;5027131;28;4911;-58
2022/11/25 06:21:56;;;;;;;;;;;;;;;;;;5005148;28;2218;-58
2022/11/25 06:24:22;;;;;;;;;;;;;;;;;;5020378;28;4656;-57
2022/11/25 06:26:47;;;;;;;;;;;;;;;;;;5021806;28;4932;-57
2022/11/25 06:29:12;;;;;;;;;;;;;;;;;;5004605;28;4452;-56
2022/11/25 06:31:37;;;;;;;;;;;;;;;;;;5010399;28;5103;-57
2022/11/25 06:34:05;;;;;;;;;;;;;;;;;;5023823;28;2445;-58
2022/11/25 06:36:30;;;;;;;;;;;;;;;;;;5023051;28;4973;-57
2022/11/25 06:38:55;;;;;;;;;;;;;;;;;;5021985;28;5030;-57
2022/11/25 06:41:21;;;;;;;;;;;;;;;;;;5022849;28;5044;-56
2022/11/25 06:43:46;;;;;;;;;;;;;;;;;;5016213;28;5452;-57
2022/11/25 06:46:12;;;;;;;;;;;;;;;;;;5025632;28;5333;-58
2022/11/25 06:48:37;;;;;;;;;;;;;;;;;;5024488;28;2462;-61
2022/11/25 06:51:04;;;;;;;;;;;;;;;;;;5018347;28;5006;-57
2022/11/25 06:53:29;;;;;;;;;;;;;;;;;;5026961;28;5053;-61
2022/11/25 06:56:07;;;;;;;;;;;;;;;;;;5028791;28;5193;-60
2022/11/25 06:58:33;;;;;;;;;;;;;;;;;;5021563;28;4905;-59
2022/11/25 07:01:17;;;;;;;;;;;;;;;;;;5029593;28;2015;-57
2022/11/25 07:03:42;;;;;;;;;;;;;;;;;;5046438;28;4403;-60
2022/11/25 07:06:08;;;;;;;;;;;;;;;;;;5013031;28;5317;-59
2022/11/25 07:08:33;;;;;;;;;;;;;;;;;;5029142;28;4526;-58
2022/11/25 07:11:03;;;;;;;;;;;;;;;;;;5029657;28;5115;-58
2022/11/25 07:13:28;;;;;;;;;;;;;;;;;;5026768;28;5140;-58
2022/11/25 07:15:53;;;;;;;;;;;;;;;;;;5015666;28;2200;-58
2022/11/25 07:18:18;;;;;;;;;;;;;;;;;;5027068;28;5033;-59
2022/11/25 07:20:44;;;;;;;;;;;;;;;;;;5030717;28;4886;-58
2022/11/25 07:23:09;;;;;;;;;;;;;;;;;;5009765;28;5081;-58
2022/11/25 07:25:34;;;;;;;;;;;;;;;;;;5018130;28;4533;-58
2022/11/25 07:27:59;;;;;;;;;;;;;;;;;;5020826;28;2259;-61
2022/11/25 07:30:25;;;;;;;;;;;;;;;;;;5016046;28;5113;-59
2022/11/25 07:32:50;;;;;;;;;;;;;;;;;;5026434;28;4980;-60
2022/11/25 07:35:15;;;;;;;;;;;;;;;;;;5027370;28;4659;-61
2022/11/25 07:37:40;;;;;;;;;;;;;;;;;;5030308;28;5099;-60
2022/11/25 07:40:06;;;;;;;;;;;;;;;;;;5020886;28;1293;-61
2022/11/25 07:42:32;;;;;;;;;;;;;;;;;;5012517;28;4899;-61
2022/11/25 07:44:57;;;;;;;;;;;;;;;;;;5008773;28;4463;-63
2022/11/25 07:47:24;;;;;;;;;;;;;;;;;;5010883;28;4406;-60
2022/11/25 07:49:49;;;;;;;;;;;;;;;;;;5016326;28;5198;-64
2022/11/25 07:52:14;;;;;;;;;;;;;;;;;;5028288;28;5223;-60
2022/11/25 07:54:39;;;;;;;;;;;;;;;;;;5019990;28;2396;-64
2022/11/25 07:57:05;;;;;;;;;;;;;;;;;;5023987;28;5075;-61
2022/11/25 07:59:30;;;;;;;;;;;;;;;;;;5016494;28;5153;-60
2022/11/25 08:01:55;;;;;;;;;;;;;;;;;;5026205;28;4660;-59
2022/11/25 08:04:20;;;;;;;;;;;;;;;;;;5028448;28;5405;-58
2022/11/25 08:06:46;;;;;;;;;;;;;;;;;;5030428;28;1177;-62
2022/11/25 08:09:12;;;;;;;;;;;;;;;;;;5042946;28;5059;-60
2022/11/25 08:11:38;;;;;;;;;;;;;;;;;;5028892;28;4779;-59
2022/11/25 08:14:03;;;;;;;;;;;;;;;;;;5019157;28;4929;-60
2022/11/25 08:16:31;;;;;;;;;;;;;;;;;;5022229;28;5058;-58
2022/11/25 08:18:57;;;;;;;;;;;;;;;;;;5030891;28;2453;-58
2022/11/25 08:21:23;;;;;;;;;;;;;;;;;;5024345;28;4966;-60
2022/11/25 08:23:48;;;;;;;;;;;;;;;;;;5024421;28;5060;-59
2022/11/25 08:26:15;;;;;;;;;;;;;;;;;;5027953;28;5182;-61
2022/11/25 08:28:40;;;;;;;;;;;;;;;;;;5029417;28;5085;-60
2022/11/25 08:31:06;;;;;;;;;;;;;;;;;;5029321;28;2130;-60
2022/11/25 08:33:31;;;;;;;;;;;;;;;;;;5028780;28;5092;-58
2022/11/25 08:35:57;;;;;;;;;;;;;;;;;;5026288;28;5172;-59
2022/11/25 08:38:22;;;;;;;;;;;;;;;;;;5024191;28;5149;-59
2022/11/25 08:40:47;;;;;;;;;;;;;;;;;;5029513;28;5019;-66
2022/11/25 08:43:13;;;;;;;;;;;;;;;;;;5025057;28;4963;-67
2022/11/25 08:45:38;;;;;;;;;;;;;;;;;;5018707;28;1918;-66
2022/11/25 08:48:04;;;;;;;;;;;;;;;;;;5014420;28;4709;-69
2022/11/25 08:50:29;;;;;;;;;;;;;;;;;;5023676;28;5599;-69
2022/11/25 08:52:56;;;;;;;;;;;;;;;;;;5017790;28;5098;-69
2022/11/25 08:55:24;;;;;;;;;;;;;;;;;;5021343;28;5054;-66
2022/11/25 08:57:50;;;;;;;;;;;;;;;;;;5016966;28;2362;-64
2022/11/25 09:00:15;;;;;;;;;;;;;;;;;;5013630;28;4971;-63
2022/11/25 09:02:41;;;;;;;;;;;;;;;;;;5021110;28;4962;-63
2022/11/25 09:05:06;;;;;;;;;;;;;;;;;;5019654;28;4525;-62
2022/11/25 09:07:31;;;;;;;;;;;;;;;;;;5012844;28;5747;-62
2022/11/25 09:09:57;;;;;;;;;;;;;;;;;;5008424;28;2086;-60
2022/11/25 09:12:22;;;;;;;;;;;;;;;;;;5014054;28;5104;-59
2022/11/25 09:14:48;;;;;;;;;;;;;;;;;;5022354;28;5122;-62
2022/11/25 09:17:14;;;;;;;;;;;;;;;;;;5025282;28;5104;-63
2022/11/25 09:19:40;;;;;;;;;;;;;;;;;;5026061;28;5162;-67
2022/11/25 09:22:05;;;;;;;;;;;;;;;;;;5014085;28;2209;-61
2022/11/25 09:24:31;;;;;;;;;;;;;;;;;;5025241;28;5486;-64
2022/11/25 09:26:56;;;;;;;;;;;;;;;;;;5021757;28;5097;-64
2022/11/25 09:29:21;;;;;;;;;;;;;;;;;;5027405;28;5230;-66
2022/11/25 09:31:46;;;;;;;;;;;;;;;;;;5027487;28;5082;-64
2022/11/25 09:34:12;;;;;;;;;;;;;;;;;;5027635;28;5086;-62
2022/11/25 09:36:37;;;;;;;;;;;;;;;;;;5028903;28;1424;-64
2022/11/25 09:39:02;;;;;;;;;;;;;;;;;;5024452;28;4431;-66
2022/11/25 09:47:08;;;;;;;;;;;;;;;;;;5027006;28;4556;-71
2022/11/25 09:49:36;;;;;;;;;;;;;;;;;;5023241;28;5161;-69
2022/11/25 09:52:11;;;;;;;;;;;;;;;;;;5012561;28;4710;-61
2022/11/25 09:54:37;;;;;;;;;;;;;;;;;;5024660;28;5112;-63
2022/11/25 09:57:09;;;;;;;;;;;;;;;;;;5026053;28;5192;-72
2022/11/25 09:59:36;;;;;;;;;;;;;;;;;;5039054;28;4522;-64
2022/11/25 10:02:02;;;;;;;;;;;;;;;;;;5023800;28;4594;-62
2022/11/25 10:04:29;;;;;;;;;;;;;;;;;;5021310;28;5053;-63
2022/11/25 10:06:55;;;;;;;;;;;;;;;;;;5015882;28;2168;-64
2022/11/25 10:09:25;;;;;;;;;;;;;;;;;;5022328;28;4510;-62
2022/11/25 10:11:51;;;;;;;;;;;;;;;;;;5024964;28;4654;-62
2022/11/25 10:14:30;;;;;;;;;;;;;;;;;;5018012;28;4654;-63
2022/11/25 10:17:14;;;;;;;;;;;;;;;;;;5035933;28;5159;-61
2022/11/25 10:19:39;;;;;;;;;;;;;;;;;;5021523;28;5154;-62
2022/11/25 10:22:24;;;;;;;;;;;;;;;;;;5025675;28;1908;-61
2022/11/25 10:24:50;;;;;;;;;;;;;;;;;;5005962;28;5105;-58
2022/11/25 10:27:42;;;;;;;;;;;;;;;;;;5005065;28;5450;-58
2022/11/25 10:30:30;;;;;;;;;;;;;;;;;;5007481;28;4854;-58
2022/11/25 10:33:05;;;;;;;;;;;;;;;;;;5011654;28;5186;-58
2022/11/25 10:35:31;;;;;;;;;;;;;;;;;;5022179;28;4518;-58
2022/11/25 10:37:57;;;;;;;;;;;;;;;;;;5035648;28;5120;-58
2022/11/25 10:40:22;;;;;;;;;;;;;;;;;;5024982;28;5399;-58
2022/11/25 10:42:48;;;;;;;;;;;;;;;;;;5031909;28;2372;-59
2022/11/25 10:45:13;;;;;;;;;;;;;;;;;;5046274;28;4620;-60
2022/11/25 10:48:00;;;;;;;;;;;;;;;;;;5005040;28;5289;-59
2022/11/25 10:50:28;;;;;;;;;;;;;;;;;;5002142;28;4912;-59
2022/11/25 10:52:55;;;;;;;;;;;;;;;;;;4988346;28;5140;-60
2022/11/25 10:55:23;;;;;;;;;;;;;;;;;;4999903;28;4689;-62
2022/11/25 10:57:48;;;;;;;;;;;;;;;;;;4991764;28;2139;-59
2022/11/25 11:00:25;;;;;;;;;;;;;;;;;;4989830;28;4937;-59
2022/11/25 11:02:50;;;;;;;;;;;;;;;;;;4994522;28;5020;-59
2022/11/25 11:05:16;;;;;;;;;;;;;;;;;;5005904;28;4679;-58
2022/11/25 11:07:42;;;;;;;;;;;;;;;;;;5011672;28;5426;-58
2022/11/25 11:10:13;;;;;;;;;;;;;;;;;;5012324;28;1851;-58
2022/11/25 11:12:48;;;;;;;;;;;;;;;;;;5005426;28;5095;-59
2022/11/25 11:15:15;;;;;;;;;;;;;;;;;;5011428;28;5069;-59
2022/11/25 11:17:40;;;;;;;;;;;;;;;;;;5009613;28;4499;-59
2022/11/25 11:20:05;;;;;;;;;;;;;;;;;;5007475;28;5113;-59
2022/11/25 11:22:30;;;;;;;;;;;;;;;;;;5010996;28;5137;-60
2022/11/25 11:25:06;;;;;;;;;;;;;;;;;;5004641;28;2181;-58
2022/11/25 11:27:34;;;;;;;;;;;;;;;;;;4988475;28;4521;-59
2022/11/25 11:30:16;;;;;;;;;;;;;;;;;;5000028;28;5848;-59
2022/11/25 11:32:42;;;;;;;;;;;;;;;;;;5009529;28;4701;-59
2022/11/25 11:35:19;;;;;;;;;;;;;;;;;;5010537;28;4588;-60
2022/11/25 11:37:46;;;;;;;;;;;;;;;;;;5008149;28;5153;-60
2022/11/25 11:40:11;;;;;;;;;;;;;;;;;;5008258;28;5021;-59
2022/11/25 11:42:48;;;;;;;;;;;;;;;;;;5007838;28;2275;-59
2022/11/25 11:45:20;;;;;;;;;;;;;;;;;;5004241;28;4660;-59
2022/11/25 11:47:58;;;;;;;;;;;;;;;;;;5022747;28;5013;-59
2022/11/25 11:50:31;;;;;;;;;;;;;;;;;;5022610;28;4952;-60
2022/11/25 11:53:09;;;;;;;;;;;;;;;;;;5020103;28;5080;-63
2022/11/25 11:55:51;;;;;;;;;;;;;;;;;;5021071;28;4516;-64
2022/11/25 11:58:16;;;;;;;;;;;;;;;;;;5029531;28;4630;-64
2022/11/25 12:00:47;;;;;;;;;;;;;;;;;;5030031;28;1999;-63
2022/11/25 12:03:17;;;;;;;;;;;;;;;;;;5025017;28;5940;-63
2022/11/25 12:05:42;;;;;;;;;;;;;;;;;;5034254;28;4840;-63
2022/11/25 12:08:19;;;;;;;;;;;;;;;;;;5043944;28;5191;-69
2022/11/25 12:10:49;;;;;;;;;;;;;;;;;;5027327;28;4662;-64
2022/11/25 12:13:21;;;;;;;;;;;;;;;;;;5027375;28;4813;-63
2022/11/25 12:15:51;;;;;;;;;;;;;;;;;;5030133;28;2079;-63
2022/11/25 12:18:19;;;;;;;;;;;;;;;;;;5012255;28;4416;-59
2022/11/25 12:20:50;;;;;;;;;;;;;;;;;;5003034;28;5312;-63
2022/11/25 12:23:22;;;;;;;;;;;;;;;;;;5022103;28;5003;-61
2022/11/25 12:25:47;;;;;;;;;;;;;;;;;;4991240;28;4974;-62
2022/11/25 12:28:15;;;;;;;;;;;;;;;;;;4990622;28;5509;-62
2022/11/25 12:30:49;;;;;;;;;;;;;;;;;;4990899;28;914;-61
2022/11/25 12:33:14;;;;;;;;;;;;;;;;;;5034000;28;4921;-62
2022/11/25 12:35:42;;;;;;;;;;;;;;;;;;5032163;28;4468;-62
2022/11/25 12:38:26;;;;;;;;;;;;;;;;;;5029810;28;4888;-62
2022/11/25 12:41:01;;;;;;;;;;;;;;;;;;5022032;28;5026;-62
2022/11/25 12:43:46;;;;;;;;;;;;;;;;;;5014053;28;4919;-62
2022/11/25 12:46:20;;;;;;;;;;;;;;;;;;5022416;28;5125;-60
2022/11/25 12:48:45;;;;;;;;;;;;;;;;;;5026812;28;2339;-63
2022/11/25 12:51:29;;;;;;;;;;;;;;;;;;5021844;28;5003;-62
2022/11/25 12:54:17;;;;;;;;;;;;;;;;;;5024032;28;5133;-62
2022/11/25 12:56:45;;;;;;;;;;;;;;;;;;5004201;28;5470;-62
2022/11/25 12:59:11;;;;;;;;;;;;;;;;;;5016529;28;5024;-62
2022/11/25 13:01:36;;;;;;;;;;;;;;;;;;5012901;28;5074;-62
2022/11/25 13:04:04;;;;;;;;;;;;;;;;;;5014545;28;2340;-62
2022/11/25 13:06:48;;;;;;;;;;;;;;;;;;5021168;28;4594;-62
2022/11/25 13:09:22;;;;;;;;;;;;;;;;;;5027440;28;4904;-62
2022/11/25 13:11:47;;;;;;;;;;;;;;;;;;5026953;28;5068;-62
2022/11/25 13:14:31;;;;;;;;;;;;;;;;;;5029049;28;4655;-62
2022/11/25 13:16:58;;;;;;;;;;;;;;;;;;5028800;28;5173;-62
2022/11/25 13:19:23;;;;;;;;;;;;;;;;;;5041417;28;4934;-64
2022/11/25 13:21:56;;;;;;;;;;;;;;;;;;5044898;28;1170;-63
2022/11/25 13:24:29;;;;;;;;;;;;;;;;;;5024637;28;4975;-67
2022/11/25 13:26:54;;;;;;;;;;;;;;;;;;5026219;28;4820;-73
2022/11/25 13:29:25;;;;;;;;;;;;;;;;;;5043579;28;5039;-75
2022/11/25 13:31:54;;;;;;;;;;;;;;;;;;5018779;28;4480;-73
2022/11/25 13:34:19;;;;;;;;;;;;;;;;;;5012759;28;5849;-73
2022/11/25 13:36:45;;;;;;;;;;;;;;;;;;5015952;28;2320;-74
2022/11/25 13:39:22;;;;;;;;;;;;;;;;;;5026435;28;5550;-72
2022/11/25 13:41:48;;;;;;;;;;;;;;;;;;5036906;28;5138;-76
2022/11/25 13:44:17;;;;;;;;;;;;;;;;;;5028361;28;5062;-68
2022/11/25 13:46:43;;;;;;;;;;;;;;;;;;5027192;28;5001;-68
2022/11/25 13:49:27;;;;;;;;;;;;;;;;;;5026414;28;2467;-65
2022/11/25 13:52:12;;;;;;;;;;;;;;;;;;5017330;28;4365;-67
2022/11/25 13:54:42;;;;;;;;;;;;;;;;;;5017230;28;4958;-69
2022/11/25 13:57:10;;;;;;;;;;;;;;;;;;5009322;28;4940;-72
2022/11/25 13:59:36;;;;;;;;;;;;;;;;;;5016487;28;5141;-68
2022/11/25 14:02:20;;;;;;;;;;;;;;;;;;5025548;28;4785;-75
2022/11/25 14:05:00;;;;;;;;;;;;;;;;;;5026403;28;5042;-67
2022/11/25 14:07:31;;;;;;;;;;;;;;;;;;5024257;28;4707;-66
2022/11/25 14:10:19;;;;;;;;;;;;;;;;;;5021946;28;2354;-67
2022/11/25 14:12:45;;;;;;;;;;;;;;;;;;5027245;28;4745;-66
2022/11/25 14:15:29;;;;;;;;;;;;;;;;;;5026060;28;5047;-70
2022/11/25 14:18:06;;;;;;;;;;;;;;;;;;5027502;28;5060;-64
2022/11/25 14:20:46;;;;;;;;;;;;;;;;;;5027967;28;4990;-66
2022/11/25 14:23:21;;;;;;;;;;;;;;;;;;5015998;28;4528;-67
2022/11/25 14:25:49;;;;;;;;;;;;;;;;;;5011647;28;5052;-64
2022/11/25 14:28:24;;;;;;;;;;;;;;;;;;5009415;28;5499;-68
2022/11/25 14:30:53;;;;;;;;;;;;;;;;;;5003861;28;1660;-68
2022/11/25 14:33:45;;;;;;;;;;;;;;;;;;5006694;28;4943;-67
2022/11/25 14:36:12;;;;;;;;;;;;;;;;;;4999428;28;4448;-67
2022/11/25 14:38:39;;;;;;;;;;;;;;;;;;5006487;28;5159;-66
2022/11/25 14:41:25;;;;;;;;;;;;;;;;;;4998732;28;4986;-65
2022/11/25 14:43:55;;;;;;;;;;;;;;;;;;5005134;28;4961;-66
2022/11/25 14:46:21;;;;;;;;;;;;;;;;;;5011295;28;5058;-67
2022/11/25 14:48:53;;;;;;;;;;;;;;;;;;4991417;28;1273;-66
2022/11/25 14:51:19;;;;;;;;;;;;;;;;;;5007473;28;5010;-67
2022/11/25 14:53:45;;;;;;;;;;;;;;;;;;5006594;28;4974;-67
2022/11/25 14:56:10;;;;;;;;;;;;;;;;;;5003773;28;4630;-67
2022/11/25 14:58:40;;;;;;;;;;;;;;;;;;5004570;28;4545;-64
2022/11/25 15:01:06;;;;;;;;;;;;;;;;;;5012358;28;984;-65
2022/11/25 15:03:31;;;;;;;;;;;;;;;;;;5010919;28;4611;-67
2022/11/25 15:06:03;;;;;;;;;;;;;;;;;;5008715;28;4911;-65
2022/11/25 15:08:35;;;;;;;;;;;;;;;;;;5011992;28;5132;-67
2022/11/25 15:11:01;;;;;;;;;;;;;;;;;;5011663;28;4883;-67
2022/11/25 15:13:26;;;;;;;;;;;;;;;;;;5010419;28;5078;-67
2022/11/25 15:15:51;;;;;;;;;;;;;;;;;;5012438;28;1170;-67
2022/11/25 15:18:18;;;;;;;;;;;;;;;;;;5002059;28;4995;-61
2022/11/25 15:20:52;;;;;;;;;;;;;;;;;;4993563;28;4524;-62
2022/11/25 15:23:18;;;;;;;;;;;;;;;;;;5009416;28;4548;-60
2022/11/25 15:25:48;;;;;;;;;;;;;;;;;;5021209;28;4530;-61
2022/11/25 15:28:14;;;;;;;;;;;;;;;;;;5003826;28;5042;-61
2022/11/25 15:30:39;;;;;;;;;;;;;;;;;;5004229;28;2159;-64
2022/11/25 15:33:05;;;;;;;;;;;;;;;;;;5018053;28;5050;-60
2022/11/25 15:35:32;;;;;;;;;;;;;;;;;;5019213;28;5136;-61
2022/11/25 15:37:57;;;;;;;;;;;;;;;;;;5011244;28;5642;-61
2022/11/25 15:40:29;;;;;;;;;;;;;;;;;;5025412;28;5063;-62
2022/11/25 15:42:55;;;;;;;;;;;;;;;;;;5028100;28;2090;-65
2022/11/25 15:45:21;;;;;;;;;;;;;;;;;;5022977;28;4441;-63
2022/11/25 15:47:46;;;;;;;;;;;;;;;;;;5045009;28;4487;-64
2022/11/25 15:50:16;;;;;;;;;;;;;;;;;;5028159;28;4833;-64
2022/11/25 15:52:43;;;;;;;;;;;;;;;;;;5030537;28;5211;-64
2022/11/25 15:55:17;;;;;;;;;;;;;;;;;;5022767;28;2085;-64
2022/11/25 15:57:44;;;;;;;;;;;;;;;;;;5011398;28;4941;-63
2022/11/25 16:00:13;;;;;;;;;;;;;;;;;;5010508;28;5086;-63
2022/11/25 16:02:42;;;;;;;;;;;;;;;;;;5026879;28;4800;-63
2022/11/25 16:05:13;;;;;;;;;;;;;;;;;;4997665;28;5059;-64
2022/11/25 16:07:51;;;;;;;;;;;;;;;;;;4989890;28;5139;-64
2022/11/25 16:10:19;;;;;;;;;;;;;;;;;;4990303;28;5000;-62
2022/11/25 16:13:04;;;;;;;;;;;;;;;;;;5008490;28;2325;-66
2022/11/25 16:15:46;;;;;;;;;;;;;;;;;;5000176;28;5001;-68
2022/11/25 16:18:11;;;;;;;;;;;;;;;;;;4998026;28;5454;-67
2022/11/25 16:20:37;;;;;;;;;;;;;;;;;;5000363;28;4999;-67
2022/11/25 16:23:06;;;;;;;;;;;;;;;;;;4998223;28;5076;-67
2022/11/25 16:25:31;;;;;;;;;;;;;;;;;;5014760;28;4587;-65
2022/11/25 16:27:59;;;;;;;;;;;;;;;;;;5014094;28;2201;-66
2022/11/25 16:30:25;;;;;;;;;;;;;;;;;;4995611;28;5113;-64
2022/11/25 16:32:50;;;;;;;;;;;;;;;;;;5001245;28;5124;-68
2022/11/25 16:35:17;;;;;;;;;;;;;;;;;;5013834;28;5040;-68
2022/11/25 16:37:42;;;;;;;;;;;;;;;;;;5013609;28;5180;-65
2022/11/25 16:40:08;;;;;;;;;;;;;;;;;;5020298;28;2116;-65
2022/11/25 16:42:33;;;;;;;;;;;;;;;;;;5026828;28;4888;-66
2022/11/25 16:44:58;;;;;;;;;;;;;;;;;;5012264;28;5537;-65
2022/11/25 16:47:25;;;;;;;;;;;;;;;;;;5027082;28;5060;-62
2022/11/25 16:49:52;;;;;;;;;;;;;;;;;;5037774;28;5177;-66
2022/11/25 16:52:17;;;;;;;;;;;;;;;;;;5013939;28;4933;-65
2022/11/25 16:54:42;;;;;;;;;;;;;;;;;;5017187;28;2365;-63
2022/11/25 16:57:11;;;;;;;;;;;;;;;;;;5010414;28;5513;-62
2022/11/25 16:59:40;;;;;;;;;;;;;;;;;;5034833;28;5080;-62
2022/11/25 17:02:12;;;;;;;;;;;;;;;;;;5020093;28;4614;-62
2022/11/25 17:04:37;;;;;;;;;;;;;;;;;;5020156;28;4638;-61
2022/11/25 17:07:04;;;;;;;;;;;;;;;;;;5024310;28;1910;-62
2022/11/25 17:09:31;;;;;;;;;;;;;;;;;;5026770;28;4908;-62
2022/11/25 17:11:56;;;;;;;;;;;;;;;;;;5027570;28;4497;-62
2022/11/25 17:14:28;;;;;;;;;;;;;;;;;;5041800;28;4495;-67
2022/11/25 17:16:53;;;;;;;;;;;;;;;;;;5020291;28;5105;-61
2022/11/25 17:19:18;;;;;;;;;;;;;;;;;;5027531;28;5110;-60
2022/11/25 17:21:44;;;;;;;;;;;;;;;;;;5021763;28;2207;-61